Time;durP1;ratioP1;P1;durP2;ratioP2;P2;SDS_P1;SDS_P2;PMS_P1;PMS_P2;Temp;Humidity;BMP_temperature;BMP_pressure;BME280_temperature;BME280_humidity;BME280_pressure;Samples;Min_cycle;Max_cycle;Signal;HPM_P1;HPM_P2
2022/04/03 00:01:28;;;;;;;5.43;3.78;;;1.10;99.90;;;;;;5049917;28;20033;-70
2022/04/03 00:03:54;;;;;;;5.95;3.70;;;1.10;99.90;;;;;;5051533;28;20187;-70
2022/04/03 00:06:20;;;;;;;6.95;3.55;;;1.00;99.90;;;;;;5050268;28;20060;-69
2022/04/03 00:08:46;;;;;;;6.40;3.22;;;1.00;99.90;;;;;;5050289;28;20139;-69
2022/04/03 00:11:11;;;;;;;6.72;3.63;;;1.00;99.90;;;;;;5050095;28;20119;-70
2022/04/03 00:13:37;;;;;;;6.32;3.28;;;1.00;99.90;;;;;;5050192;28;20118;-69
2022/04/03 00:16:04;;;;;;;6.07;4.53;;;1.00;99.90;;;;;;5051326;28;20044;-69
2022/04/03 00:18:30;;;;;;;4.65;3.70;;;0.90;99.90;;;;;;5050127;28;20044;-69
2022/04/03 00:20:55;;;;;;;5.10;3.42;;;0.90;99.90;;;;;;5051258;28;20614;-70
2022/04/03 00:23:23;;;;;;;4.72;2.70;;;0.90;99.90;;;;;;5050025;28;20099;-70
2022/04/03 00:25:50;;;;;;;4.40;3.17;;;0.90;99.90;;;;;;5050060;28;20067;-69
2022/04/03 00:28:15;;;;;;;7.70;4.85;;;0.90;99.90;;;;;;5050211;28;20045;-69
2022/04/03 00:30:42;;;;;;;5.25;3.00;;;0.80;99.90;;;;;;5050946;28;20048;-69
2022/04/03 00:33:08;;;;;;;7.80;4.47;;;0.80;99.90;;;;;;5050183;28;20453;-69
2022/04/03 00:35:34;;;;;;;4.55;3.05;;;0.80;99.90;;;;;;5050215;28;20055;-70
2022/04/03 00:38:00;;;;;;;5.10;3.10;;;0.80;99.90;;;;;;5049941;28;20045;-69
2022/04/03 00:40:26;;;;;;;4.72;3.17;;;0.80;99.90;;;;;;5052653;28;20106;-69
2022/04/03 00:42:52;;;;;;;8.15;3.10;;;0.80;99.90;;;;;;5053670;28;20045;-70
2022/04/03 00:45:19;;;;;;;3.72;3.05;;;0.80;99.90;;;;;;5053602;28;20873;-69
2022/04/03 00:47:45;;;;;;;3.90;3.15;;;0.80;99.90;;;;;;5055101;28;20036;-70
2022/04/03 00:50:11;;;;;;;5.63;3.30;;;0.80;99.90;;;;;;5054590;28;20076;-69
2022/04/03 00:52:37;;;;;;;6.03;3.72;;;0.80;99.90;;;;;;5053338;28;20091;-69
2022/04/03 00:55:03;;;;;;;5.68;3.15;;;0.80;99.90;;;;;;5053501;28;20461;-70
2022/04/03 00:57:29;;;;;;;5.20;3.30;;;0.70;99.90;;;;;;5053610;28;20121;-70
2022/04/03 00:59:55;;;;;;;5.43;2.97;;;0.70;99.90;;;;;;5053166;28;20127;-70
2022/04/03 01:02:21;;;;;;;5.07;2.67;;;0.60;99.90;;;;;;5054720;28;20056;-70
2022/04/03 01:04:47;;;;;;;7.07;3.50;;;0.60;99.90;;;;;;5053308;28;20045;-70
2022/04/03 01:07:13;;;;;;;5.63;2.97;;;0.60;99.90;;;;;;5054687;28;20080;-70
2022/04/03 01:09:38;;;;;;;5.63;3.55;;;0.60;99.90;;;;;;5053221;28;20037;-70
2022/04/03 01:12:05;;;;;;;4.65;2.80;;;0.60;99.90;;;;;;5052768;28;20116;-70
2022/04/03 01:14:33;;;;;;;3.97;2.80;;;0.60;99.90;;;;;;5053138;28;20413;-70
2022/04/03 01:16:58;;;;;;;6.55;2.88;;;0.60;99.90;;;;;;5053100;28;20044;-70
2022/04/03 01:19:24;;;;;;;4.70;2.50;;;0.60;99.90;;;;;;5053121;28;20048;-70
2022/04/03 01:21:50;;;;;;;4.50;2.90;;;0.60;99.90;;;;;;5053886;28;20096;-70
2022/04/03 01:24:20;;;;;;;9.82;3.10;;;0.60;99.90;;;;;;5054180;28;20090;-70
2022/04/03 01:26:47;;;;;;;4.95;3.08;;;0.60;99.90;;;;;;5054080;28;20041;-70
2022/04/03 01:29:13;;;;;;;6.57;3.38;;;0.60;99.90;;;;;;5052808;28;20041;-70
2022/04/03 01:31:38;;;;;;;5.65;2.70;;;0.60;99.90;;;;;;5052834;28;20099;-70
2022/04/03 01:34:04;;;;;;;4.88;2.97;;;0.60;99.90;;;;;;5053929;28;20045;-70
2022/04/03 01:36:29;;;;;;;4.65;2.90;;;0.60;99.90;;;;;;5052928;28;20049;-70
2022/04/03 01:38:55;;;;;;;5.40;2.67;;;0.50;99.90;;;;;;5052716;28;20406;-70
2022/04/03 01:41:20;;;;;;;5.13;3.00;;;0.50;99.90;;;;;;5053527;28;20402;-70
2022/04/03 01:43:46;;;;;;;5.65;3.22;;;0.50;99.90;;;;;;5052587;28;20033;-70
2022/04/03 01:46:11;;;;;;;5.93;2.85;;;0.50;99.90;;;;;;5052825;28;20059;-70
2022/04/03 01:48:37;;;;;;;4.30;2.75;;;0.50;99.90;;;;;;5053734;28;20033;-70
2022/04/03 01:51:02;;;;;;;7.22;3.60;;;0.50;99.90;;;;;;5053427;28;20123;-71
2022/04/03 01:53:28;;;;;;;14.75;5.75;;;0.40;99.90;;;;;;5053546;28;20129;-70
2022/04/03 01:56:03;;;;;;;7.43;3.35;;;0.40;99.90;;;;;;5052293;28;20414;-70
2022/04/03 01:58:29;;;;;;;4.60;2.55;;;0.40;99.90;;;;;;5052322;28;20049;-70
2022/04/03 02:00:55;;;;;;;5.57;3.28;;;0.40;99.90;;;;;;5052005;28;20060;-70
2022/04/03 02:03:21;;;;;;;7.85;3.05;;;0.40;99.90;;;;;;5052105;28;20051;-70
2022/04/03 02:05:47;;;;;;;5.63;3.15;;;0.40;99.90;;;;;;5053528;28;20036;-70
2022/04/03 02:08:13;;;;;;;4.93;3.05;;;0.50;99.90;;;;;;5052295;28;20037;-70
2022/04/03 02:10:38;;;;;;;5.05;3.00;;;0.60;99.90;;;;;;5053002;28;20036;-70
2022/04/03 02:13:04;;;;;;;4.78;2.88;;;0.50;99.90;;;;;;5051931;28;20120;-70
2022/04/03 02:15:30;;;;;;;5.20;3.15;;;0.50;99.90;;;;;;5051950;28;20086;-70
2022/04/03 02:17:56;;;;;;;4.88;2.75;;;0.40;99.90;;;;;;5053301;28;20041;-70
2022/04/03 02:20:21;;;;;;;6.00;4.05;;;0.50;99.90;;;;;;5051697;28;20041;-70
2022/04/03 02:22:47;;;;;;;5.07;2.88;;;0.50;99.90;;;;;;5053054;28;20048;-70
2022/04/03 02:25:13;;;;;;;5.82;3.03;;;0.50;99.90;;;;;;5051663;28;20132;-70
2022/04/03 02:27:43;;;;;;;6.40;3.22;;;0.60;99.90;;;;;;5053294;28;20048;-70
2022/04/03 02:30:10;;;;;;;4.80;2.97;;;0.60;99.90;;;;;;5051530;28;20045;-70
2022/04/03 02:32:37;;;;;;;6.00;2.88;;;0.70;99.90;;;;;;5053050;28;20037;-70
2022/04/03 02:35:04;;;;;;;5.57;3.03;;;0.80;99.90;;;;;;5051671;28;20545;-70
2022/04/03 02:37:30;;;;;;;5.05;3.38;;;0.80;99.90;;;;;;5051832;28;20124;-70
2022/04/03 02:39:55;;;;;;;3.25;2.80;;;0.90;99.90;;;;;;5052749;28;20498;-70
2022/04/03 02:42:22;;;;;;;4.72;3.13;;;0.90;99.90;;;;;;5052663;28;20036;-70
2022/04/03 02:44:47;;;;;;;5.45;3.30;;;0.90;99.90;;;;;;5051441;28;20051;-70
2022/04/03 02:47:14;;;;;;;4.38;2.92;;;1.00;99.90;;;;;;5051472;28;20045;-70
2022/04/03 02:49:39;;;;;;;4.90;2.80;;;1.00;99.90;;;;;;5052747;28;20047;-70
2022/04/03 02:52:05;;;;;;;4.30;3.00;;;1.00;99.90;;;;;;5051055;28;20040;-70
2022/04/03 02:54:31;;;;;;;6.47;3.30;;;1.10;99.90;;;;;;5052525;28;20490;-70
2022/04/03 02:56:57;;;;;;;7.78;2.80;;;1.10;99.90;;;;;;5051290;28;20098;-70
2022/04/03 02:59:22;;;;;;;6.63;3.08;;;1.10;99.90;;;;;;5052601;28;20358;-70
2022/04/03 03:01:48;;;;;;;4.78;3.00;;;1.20;99.90;;;;;;5051603;28;20052;-70
2022/04/03 03:04:14;;;;;;;4.93;3.08;;;1.20;99.90;;;;;;5051044;28;20055;-70
2022/04/03 03:06:40;;;;;;;6.90;3.55;;;1.10;99.90;;;;;;5052306;28;20095;-70
2022/04/03 03:09:06;;;;;;;9.77;4.03;;;1.20;99.90;;;;;;5052501;28;20048;-70
2022/04/03 03:11:31;;;;;;;7.15;3.90;;;1.20;99.90;;;;;;5050736;28;20040;-70
2022/04/03 03:13:57;;;;;;;5.25;3.45;;;1.20;99.90;;;;;;5052319;28;20409;-70
2022/04/03 03:16:23;;;;;;;4.97;3.28;;;1.20;99.90;;;;;;5050939;28;20460;-70
2022/04/03 03:18:48;;;;;;;6.68;3.25;;;1.20;99.90;;;;;;5050913;28;20044;-70
2022/04/03 03:21:15;;;;;;;4.63;3.08;;;1.20;99.90;;;;;;5050540;28;20498;-70
2022/04/03 03:23:41;;;;;;;6.85;3.10;;;1.30;99.90;;;;;;5052143;28;20052;-70
2022/04/03 03:26:07;;;;;;;5.53;2.60;;;1.30;99.90;;;;;;5050951;28;20040;-71
2022/04/03 03:28:32;;;;;;;5.55;2.58;;;1.30;99.90;;;;;;5050995;28;20033;-70
2022/04/03 03:30:58;;;;;;;4.97;2.60;;;1.30;99.90;;;;;;5051746;28;20041;-70
2022/04/03 03:33:23;;;;;;;3.53;1.75;;;1.30;99.90;;;;;;5051845;28;20063;-70
2022/04/03 03:35:49;;;;;;;3.85;1.90;;;1.30;99.90;;;;;;5050761;28;20033;-70
2022/04/03 03:38:14;;;;;;;3.75;1.55;;;1.30;99.90;;;;;;5052022;28;20064;-70
2022/04/03 03:40:40;;;;;;;2.80;1.73;;;1.30;99.90;;;;;;5051642;28;20130;-71
2022/04/03 03:43:07;;;;;;;2.85;1.50;;;1.30;99.90;;;;;;5051766;28;20572;-70
2022/04/03 03:45:33;;;;;;;2.70;1.40;;;1.40;99.90;;;;;;5050452;28;20120;-70
2022/04/03 03:47:58;;;;;;;2.70;1.27;;;1.40;99.90;;;;;;5051767;28;20108;-70
2022/04/03 03:50:25;;;;;;;4.60;1.05;;;1.50;99.90;;;;;;5051320;28;20089;-70
2022/04/03 03:52:50;;;;;;;2.00;1.27;;;1.40;99.90;;;;;;5050267;28;20041;-71
2022/04/03 03:55:16;;;;;;;3.05;1.00;;;1.50;99.90;;;;;;5051600;28;20090;-70
2022/04/03 03:57:46;;;;;;;2.78;1.20;;;1.50;99.90;;;;;;5050617;28;20048;-71
2022/04/03 04:00:12;;;;;;;1.90;0.95;;;1.50;99.90;;;;;;5050119;28;20044;-70
2022/04/03 04:02:38;;;;;;;1.38;1.10;;;1.60;99.90;;;;;;5050544;28;20041;-70
2022/04/03 04:05:05;;;;;;;1.95;1.30;;;1.50;99.90;;;;;;5050262;28;20071;-71
2022/04/03 04:07:45;;;;;;;1.50;1.00;;;1.60;99.90;;;;;;5050285;28;20048;-71
2022/04/03 04:10:12;;;;;;;1.77;0.80;;;1.60;99.90;;;;;;5049969;28;20045;-71
2022/04/03 04:12:41;;;;;;;1.80;1.00;;;1.60;99.90;;;;;;5050491;28;20048;-71
2022/04/03 04:15:08;;;;;;;2.35;1.20;;;1.60;99.90;;;;;;5053871;28;20498;-70
2022/04/03 04:17:35;;;;;;;2.88;1.45;;;1.60;99.90;;;;;;5054534;28;20533;-71
2022/04/03 04:20:02;;;;;;;2.72;1.60;;;1.60;99.90;;;;;;5053989;28;20053;-71
2022/04/03 04:22:27;;;;;;;3.53;1.60;;;1.60;99.90;;;;;;5054558;28;20407;-70
2022/04/03 04:24:53;;;;;;;3.53;2.78;;;1.50;99.90;;;;;;5054138;28;20041;-70
2022/04/03 04:27:18;;;;;;;2.88;1.90;;;1.50;99.90;;;;;;5055316;28;20040;-70
2022/04/03 04:29:44;;;;;;;2.83;2.00;;;1.50;99.90;;;;;;5053980;28;20048;-70
2022/04/03 04:32:09;;;;;;;3.60;1.73;;;1.40;99.90;;;;;;5054845;28;20040;-70
2022/04/03 04:34:35;;;;;;;2.88;2.55;;;1.40;99.90;;;;;;5055272;28;20037;-70
2022/04/03 04:37:00;;;;;;;5.70;2.70;;;1.40;99.90;;;;;;5053849;28;20103;-71
2022/04/03 04:39:26;;;;;;;5.95;2.70;;;1.40;99.90;;;;;;5055150;28;20087;-70
2022/04/03 04:41:52;;;;;;;4.93;3.13;;;1.50;99.90;;;;;;5053486;28;20049;-70
2022/04/03 04:44:17;;;;;;;6.35;2.83;;;1.40;99.90;;;;;;5053790;28;20041;-71
2022/04/03 04:46:43;;;;;;;4.20;3.35;;;1.40;99.90;;;;;;5054983;28;20375;-70
2022/04/03 04:49:08;;;;;;;5.38;2.95;;;1.40;99.90;;;;;;5055169;28;20043;-70
2022/04/03 04:51:34;;;;;;;2.58;2.33;;;1.40;99.90;;;;;;5054761;28;20064;-71
2022/04/03 04:53:59;;;;;;;4.65;2.60;;;1.40;99.90;;;;;;5053410;28;20041;-70
2022/04/03 04:56:25;;;;;;;4.68;3.55;;;1.40;99.90;;;;;;5054699;28;20040;-71
2022/04/03 04:58:50;;;;;;;7.55;3.22;;;1.40;99.90;;;;;;5054759;28;20398;-71
2022/04/03 05:01:16;;;;;;;4.50;3.03;;;1.40;99.90;;;;;;5054327;28;20048;-70
2022/04/03 05:03:42;;;;;;;4.75;3.05;;;1.40;99.90;;;;;;5054721;28;20063;-70
2022/04/03 05:06:12;;;;;;;3.85;3.38;;;1.40;99.90;;;;;;5054588;28;20044;-71
2022/04/03 05:08:37;;;;;;;4.07;3.45;;;1.30;99.90;;;;;;5053493;28;20044;-70
2022/04/03 05:11:03;;;;;;;5.63;3.60;;;1.30;99.90;;;;;;5052866;28;20049;-70
2022/04/03 05:13:29;;;;;;;6.47;3.90;;;1.30;99.90;;;;;;5052969;28;20059;-70
2022/04/03 05:15:54;;;;;;;4.13;3.38;;;1.30;99.90;;;;;;5052968;28;20048;-70
2022/04/03 05:18:21;;;;;;;8.45;3.53;;;1.30;99.90;;;;;;5054506;28;20072;-70
2022/04/03 05:20:47;;;;;;;4.90;3.78;;;1.30;99.90;;;;;;5052843;28;20509;-70
2022/04/03 05:23:13;;;;;;;6.10;4.15;;;1.30;99.90;;;;;;5054283;28;20041;-70
2022/04/03 05:25:38;;;;;;;4.43;3.83;;;1.20;99.90;;;;;;5052332;28;20048;-70
2022/04/03 05:28:05;;;;;;;5.22;3.47;;;1.20;99.90;;;;;;5054282;28;20052;-70
2022/04/03 05:30:30;;;;;;;5.30;3.63;;;1.20;99.90;;;;;;5053772;28;20033;-70
2022/04/03 05:32:56;;;;;;;6.93;3.85;;;1.20;99.90;;;;;;5052767;28;20555;-71
2022/04/03 05:35:21;;;;;;;7.15;3.88;;;1.20;99.90;;;;;;5052799;28;20048;-70
2022/04/03 05:37:47;;;;;;;4.63;3.67;;;1.20;99.90;;;;;;5054126;28;20048;-70
2022/04/03 05:40:13;;;;;;;5.15;3.65;;;1.20;99.90;;;;;;5053666;28;20041;-70
2022/04/03 05:42:39;;;;;;;5.60;3.10;;;1.30;99.90;;;;;;5053924;28;20042;-70
2022/04/03 05:45:05;;;;;;;5.53;3.58;;;1.30;99.90;;;;;;5053778;28;20041;-70
2022/04/03 05:47:31;;;;;;;4.25;3.28;;;1.30;99.90;;;;;;5052562;28;20387;-70
2022/04/03 05:49:57;;;;;;;9.20;3.85;;;1.30;99.90;;;;;;5053709;28;20080;-71
2022/04/03 05:52:24;;;;;;;3.85;3.20;;;1.40;99.90;;;;;;5052228;28;20387;-70
2022/04/03 05:54:50;;;;;;;4.07;3.08;;;1.40;99.90;;;;;;5052431;28;20056;-70
2022/04/03 05:57:16;;;;;;;3.92;3.03;;;1.40;99.90;;;;;;5053724;28;20036;-70
2022/04/03 05:59:41;;;;;;;3.47;2.97;;;1.50;99.90;;;;;;5052472;28;20049;-70
2022/04/03 06:02:07;;;;;;;5.80;2.85;;;1.50;99.90;;;;;;5053526;28;20090;-70
2022/04/03 06:04:33;;;;;;;6.15;4.00;;;1.60;99.90;;;;;;5053755;28;20072;-70
2022/04/03 06:06:59;;;;;;;3.88;3.00;;;1.70;99.90;;;;;;5053627;28;20041;-70
2022/04/03 06:09:24;;;;;;;5.00;3.00;;;1.70;99.90;;;;;;5053436;28;20033;-70
2022/04/03 06:11:51;;;;;;;5.13;3.53;;;1.80;99.90;;;;;;5051729;28;20557;-70
2022/04/03 06:14:17;;;;;;;4.50;3.35;;;1.90;99.90;;;;;;5053357;28;20609;-71
2022/04/03 06:16:42;;;;;;;5.03;3.08;;;2.10;99.90;;;;;;5053539;28;20045;-70
2022/04/03 06:19:08;;;;;;;6.75;3.47;;;2.20;99.90;;;;;;5051967;28;20563;-70
2022/04/03 06:21:33;;;;;;;6.85;3.45;;;2.30;99.90;;;;;;5053096;28;20045;-70
2022/04/03 06:23:59;;;;;;;5.10;3.03;;;2.30;99.90;;;;;;5053102;28;20044;-71
2022/04/03 06:26:25;;;;;;;4.68;3.40;;;2.30;99.90;;;;;;5053189;28;20509;-71
2022/04/03 06:28:50;;;;;;;4.65;3.42;;;2.40;99.90;;;;;;5052048;28;20063;-71
2022/04/03 06:31:16;;;;;;;4.10;3.25;;;2.30;99.90;;;;;;5051695;28;20102;-71
2022/04/03 06:33:41;;;;;;;4.93;3.10;;;2.30;99.90;;;;;;5052861;28;20045;-71
2022/04/03 06:36:07;;;;;;;4.22;3.10;;;2.30;99.90;;;;;;5051697;28;20131;-71
2022/04/03 06:38:33;;;;;;;5.97;3.00;;;2.30;99.90;;;;;;5052248;28;20037;-71
2022/04/03 06:40:59;;;;;;;3.97;3.08;;;2.30;99.90;;;;;;5052419;28;20044;-71
2022/04/03 06:43:28;;;;;;;5.53;3.17;;;2.30;99.90;;;;;;5051545;28;20044;-71
2022/04/03 06:45:55;;;;;;;6.28;3.17;;;2.40;99.90;;;;;;5052981;28;20037;-71
2022/04/03 06:48:21;;;;;;;4.32;2.58;;;2.40;99.90;;;;;;5051530;28;20044;-71
2022/04/03 06:50:47;;;;;;;5.78;2.70;;;2.40;99.90;;;;;;5051404;28;20594;-71
2022/04/03 06:53:12;;;;;;;4.57;2.67;;;2.40;99.90;;;;;;5052471;28;20111;-71
2022/04/03 06:55:38;;;;;;;7.55;3.28;;;2.40;99.90;;;;;;5051602;28;20087;-71
2022/04/03 06:58:04;;;;;;;7.20;3.30;;;2.50;99.90;;;;;;5051387;28;20498;-71
2022/04/03 07:00:29;;;;;;;4.88;3.00;;;3.00;99.90;;;;;;5052553;28;20154;-71
2022/04/03 07:02:55;;;;;;;4.88;2.55;;;3.50;99.90;;;;;;5050961;28;20041;-71
2022/04/03 07:05:21;;;;;;;4.18;2.85;;;4.00;99.90;;;;;;5052453;28;20037;-71
2022/04/03 07:07:50;;;;;;;4.25;2.17;;;4.30;99.90;;;;;;5051076;28;20039;-71
2022/04/03 07:10:15;;;;;;;8.50;3.33;;;4.50;99.90;;;;;;5052001;28;20048;-71
2022/04/03 07:12:41;;;;;;;4.40;2.53;;;4.70;99.90;;;;;;5051988;28;20498;-73
2022/04/03 07:15:12;;;;;;;3.67;2.65;;;4.90;99.90;;;;;;5051235;28;20048;-71
2022/04/03 07:17:38;;;;;;;5.22;2.40;;;5.10;99.90;;;;;;5052276;28;20130;-71
2022/04/03 07:20:05;;;;;;;3.08;1.95;;;5.40;99.90;;;;;;5051404;28;20445;-71
2022/04/03 07:22:31;;;;;;;7.82;3.05;;;5.80;99.90;;;;;;5033955;28;20401;-71
2022/04/03 07:24:57;;;;;;;5.22;2.67;;;5.90;99.90;;;;;;5050024;28;20112;-71
2022/04/03 07:27:22;;;;;;;8.27;3.17;;;6.20;99.90;;;;;;5051645;28;20033;-71
2022/04/03 07:29:48;;;;;;;3.75;2.30;;;6.30;99.90;;;;;;5051865;28;20112;-71
2022/04/03 07:32:13;;;;;;;6.28;2.47;;;6.50;99.90;;;;;;5051461;28;20037;-71
2022/04/03 07:34:39;;;;;;;4.05;2.60;;;6.60;99.90;;;;;;5050612;28;20037;-71
2022/04/03 07:37:04;;;;;;;5.82;2.30;;;7.00;99.90;;;;;;5033964;28;20041;-71
2022/04/03 07:39:30;;;;;;;4.25;1.92;;;7.20;99.90;;;;;;5051499;28;20514;-71
2022/04/03 07:41:56;;;;;;;2.80;1.70;;;7.10;99.90;;;;;;5050532;28;20422;-71
2022/04/03 07:44:22;;;;;;;4.03;1.90;;;7.10;99.90;;;;;;5050477;28;20544;-71
2022/04/03 07:46:47;;;;;;;5.30;2.30;;;7.20;99.90;;;;;;5050672;28;20033;-71
2022/04/03 07:49:13;;;;;;;2.78;1.75;;;7.20;99.90;;;;;;5050190;28;20055;-71
2022/04/03 07:51:38;;;;;;;2.45;1.83;;;7.30;99.90;;;;;;5050273;28;20033;-72
2022/04/03 07:54:04;;;;;;;3.78;1.60;;;7.30;99.90;;;;;;5050217;28;20078;-71
2022/04/03 07:56:30;;;;;;;3.15;1.38;;;7.60;99.90;;;;;;5033634;28;20105;-71
2022/04/03 07:58:56;;;;;;;2.25;1.27;;;7.80;99.90;;;;;;5033784;28;20466;-71
2022/04/03 08:01:21;;;;;;;3.00;1.42;;;8.10;99.90;;;;;;5033680;28;20080;-72
2022/04/03 08:03:47;;;;;;;3.88;1.38;;;8.10;99.90;;;;;;5051462;28;20102;-72
2022/04/03 08:06:12;;;;;;;3.10;1.02;;;8.00;99.90;;;;;;5051543;28;20398;-71
2022/04/03 08:08:39;;;;;;;4.35;1.38;;;8.00;99.90;;;;;;5050069;28;20048;-72
2022/04/03 08:11:05;;;;;;;1.85;0.98;;;8.20;99.90;;;;;;5049787;28;20098;-72
2022/04/03 08:13:30;;;;;;;2.45;1.00;;;8.20;99.90;;;;;;5051679;28;20041;-71
2022/04/03 08:15:56;;;;;;;2.53;1.10;;;8.40;99.60;;;;;;5051531;28;20563;-71
2022/04/03 08:18:27;;;;;;;2.20;1.10;;;8.30;99.40;;;;;;5051411;28;20037;-72
2022/04/03 08:20:53;;;;;;;2.28;1.10;;;8.50;98.80;;;;;;5051132;28;20445;-71
2022/04/03 08:23:19;;;;;;;1.98;0.82;;;8.70;96.10;;;;;;5051161;28;20040;-71
2022/04/03 08:25:45;;;;;;;5.93;1.35;;;8.80;94.30;;;;;;5050019;28;20132;-71
2022/04/03 08:28:11;;;;;;;1.83;0.90;;;9.00;94.00;;;;;;5051179;28;20087;-71
2022/04/03 08:30:38;;;;;;;1.85;0.85;;;8.80;91.80;;;;;;5049974;28;20041;-72
2022/04/03 08:33:05;;;;;;;1.45;0.73;;;8.90;91.30;;;;;;5042454;28;20068;-74
2022/04/03 08:35:32;;;;;;;1.85;0.95;;;8.70;88.50;;;;;;5044236;28;20041;-75
2022/04/03 08:37:59;;;;;;;1.10;0.60;;;8.90;88.40;;;;;;5049830;28;20060;-72
2022/04/03 08:40:26;;;;;;;2.88;0.70;;;8.80;86.40;;;;;;5049336;28;20037;-72
2022/04/03 08:42:54;;;;;;;1.55;0.80;;;8.90;82.50;;;;;;5049547;28;20056;-72
2022/04/03 08:45:20;;;;;;;4.45;0.77;;;9.10;84.50;;;;;;5049469;28;20037;-76
2022/04/03 08:47:57;;;;;;;6.43;1.23;;;9.20;78.80;;;;;;5049580;28;20048;-72
2022/04/03 08:50:37;;;;;;;2.78;1.00;;;9.20;81.70;;;;;;5050421;28;20048;-72
2022/04/03 08:53:06;;;;;;;2.45;0.85;;;8.80;83.90;;;;;;5049514;28;20040;-73
2022/04/03 08:55:32;;;;;;;2.08;1.00;;;8.60;87.80;;;;;;5048294;28;20067;-73
2022/04/03 08:57:59;;;;;;;1.98;0.90;;;8.40;90.40;;;;;;5048508;28;20041;-72
2022/04/03 09:00:25;;;;;;;2.90;0.93;;;8.10;89.70;;;;;;5048567;28;20044;-72
2022/04/03 09:02:51;;;;;;;4.97;1.27;;;7.80;90.60;;;;;;5052761;28;20048;-72
2022/04/03 09:05:18;;;;;;;4.90;1.23;;;7.60;92.40;;;;;;5053042;28;20402;-72
2022/04/03 09:07:44;;;;;;;4.97;1.05;;;7.40;94.20;;;;;;5060861;28;20048;-71
2022/04/03 09:10:16;;;;;;;5.75;1.17;;;7.20;95.10;;;;;;5052941;28;20119;-72
2022/04/03 09:12:47;;;;;;;2.38;0.82;;;7.10;95.90;;;;;;5052867;28;20101;-71
2022/04/03 09:15:15;;;;;;;4.53;1.23;;;7.40;95.60;;;;;;5052785;28;20132;-72
2022/04/03 09:17:44;;;;;;;2.95;1.27;;;7.70;96.50;;;;;;5052703;28;20045;-72
2022/04/03 09:20:15;;;;;;;2.83;0.77;;;8.00;93.70;;;;;;5052828;28;20518;-70
2022/04/03 09:22:42;;;;;;;5.00;1.35;;;8.00;90.30;;;;;;5036284;28;20057;-72
2022/04/03 09:25:16;;;;;;;4.47;0.90;;;8.30;88.90;;;;;;5054043;28;20045;-70
2022/04/03 09:27:57;;;;;;;3.13;0.80;;;8.60;85.80;;;;;;5053742;28;20095;-70
2022/04/03 09:30:28;;;;;;;5.53;1.05;;;8.60;80.80;;;;;;5053837;28;20116;-70
2022/04/03 09:32:57;;;;;;;1.45;0.85;;;8.70;80.90;;;;;;5052015;28;20516;-71
2022/04/03 09:35:26;;;;;;;3.53;0.95;;;8.70;79.60;;;;;;5047896;28;20059;-72
2022/04/03 09:38:08;;;;;;;2.60;0.75;;;8.60;78.60;;;;;;5053875;28;20449;-71
2022/04/03 09:40:36;;;;;;;1.92;0.60;;;8.30;80.90;;;;;;5052045;28;20589;-71
2022/04/03 09:43:16;;;;;;;1.67;0.73;;;8.00;79.70;;;;;;5053597;28;20494;-72
2022/04/03 09:45:50;;;;;;;1.15;0.60;;;7.60;81.00;;;;;;5052146;28;20045;-71
2022/04/03 09:48:42;;;;;;;3.15;0.93;;;7.40;82.00;;;;;;5052071;28;20029;-74
2022/04/03 09:51:19;;;;;;;2.17;0.60;;;7.30;82.70;;;;;;5052007;28;20521;-73
2022/04/03 09:53:49;;;;;;;3.53;0.60;;;7.10;83.50;;;;;;5052159;28;20052;-74
2022/04/03 09:56:28;;;;;;;1.45;0.52;;;6.90;84.60;;;;;;5060985;22;20048;-78
2022/04/03 09:58:57;;;;;;;6.82;1.02;;;7.30;86.50;;;;;;5031592;28;20533;-78
2022/04/03 10:01:24;;;;;;;2.53;0.63;;;7.50;87.70;;;;;;5033316;28;20061;-77
2022/04/03 10:03:51;;;;;;;2.83;0.75;;;7.80;86.50;;;;;;5032744;28;20037;-77
2022/04/03 10:06:18;;;;;;;2.05;0.88;;;8.20;83.40;;;;;;5033723;28;20086;-78
2022/04/03 10:08:47;;;;;;;6.05;0.70;;;8.10;75.20;;;;;;5011644;28;20038;-77
2022/04/03 10:11:14;;;;;;;1.45;0.60;;;8.00;73.90;;;;;;5017670;28;20041;-77
2022/04/03 10:13:42;;;;;;;2.67;0.57;;;8.20;74.30;;;;;;5030240;28;20044;-78
2022/04/03 10:16:08;;;;;;;2.95;0.60;;;8.40;73.40;;;;;;5024403;28;20538;-77
2022/04/03 10:18:34;;;;;;;1.92;0.45;;;8.50;73.00;;;;;;5035541;28;20042;-79
2022/04/03 10:21:00;;;;;;;1.58;0.52;;;8.60;69.30;;;;;;5020259;28;20048;-78
2022/04/03 10:23:27;;;;;;;2.13;0.57;;;8.60;67.90;;;;;;5017767;28;20037;-78
2022/04/03 10:25:56;;;;;;;0.60;0.40;;;8.70;68.20;;;;;;5017608;28;20115;-78
2022/04/03 10:28:23;;;;;;;2.72;0.52;;;8.80;68.70;;;;;;5033708;28;20037;-78
2022/04/03 10:31:07;;;;;;;1.30;0.40;;;8.70;65.90;;;;;;5031691;28;20029;-77
2022/04/03 10:33:41;;;;;;;1.33;0.40;;;8.60;65.40;;;;;;5033222;28;20116;-77
2022/04/03 10:36:09;;;;;;;1.10;0.35;;;8.50;65.60;;;;;;5032135;28;20564;-77
2022/04/03 10:38:47;;;;;;;1.25;0.40;;;8.50;66.00;;;;;;5031821;28;20121;-77
2022/04/03 10:41:34;;;;;;;1.33;0.35;;;8.50;65.10;;;;;;5033713;28;20037;-78
2022/04/03 10:44:19;;;;;;;1.90;0.50;;;8.90;66.50;;;;;;5031641;28;20041;-77
2022/04/03 10:47:03;;;;;;;0.80;0.40;;;9.10;68.70;;;;;;5034242;28;20060;-79
2022/04/03 10:49:37;;;;;;;1.00;0.55;;;8.60;65.70;;;;;;5031360;28;20459;-76
2022/04/03 10:52:04;;;;;;;1.38;0.50;;;8.40;67.40;;;;;;5031365;28;20414;-76
2022/04/03 10:54:31;;;;;;;1.15;0.63;;;8.10;67.70;;;;;;5030843;28;20044;-75
2022/04/03 10:57:33;;;;;;;1.40;0.70;;;7.90;70.20;;;;;;5031009;28;20402;-75
2022/04/03 11:00:14;;;;;;;1.08;0.50;;;7.90;70.40;;;;;;5031054;28;20038;-76
2022/04/03 11:02:42;;;;;;;1.67;0.50;;;8.10;71.20;;;;;;5030942;28;20049;-76
2022/04/03 11:05:26;;;;;;;2.67;0.52;;;8.20;67.70;;;;;;5031025;28;20052;-76
2022/04/03 11:07:51;;;;;;;;;;;8.40;66.20;;;;;;5031773;28;20049;-78
2022/04/03 11:10:42;;;;;;;2.85;0.65;;;8.50;64.70;;;;;;5014813;28;19917;-76
2022/04/03 11:13:08;;;;;;;1.70;0.90;;;8.80;64.80;;;;;;5015200;28;20040;-77
2022/04/03 11:15:48;;;;;;;1.92;0.98;;;8.70;71.60;;;;;;5015180;28;20056;-78
2022/04/03 11:18:39;;;;;;;3.13;0.88;;;8.10;76.80;;;;;;5014358;28;20046;-77
2022/04/03 11:21:08;;;;;;;2.20;0.70;;;7.80;81.90;;;;;;5009306;28;20430;-76
2022/04/03 11:23:40;;;;;;;3.65;0.93;;;7.40;87.40;;;;;;5010673;28;20094;-76
2022/04/03 11:26:06;;;;;;;3.58;0.98;;;7.30;91.10;;;;;;5010921;28;20467;-79
2022/04/03 11:28:36;;;;;;;4.00;1.00;;;7.10;90.80;;;;;;4995765;28;20045;-78
2022/04/03 11:31:03;;;;;;;2.60;0.80;;;7.00;91.80;;;;;;5011877;28;20048;-79
2022/04/03 11:33:29;;;;;;;1.35;0.80;;;6.80;92.20;;;;;;5011725;28;20200;-78
2022/04/03 11:36:00;;;;;;;2.25;1.10;;;6.70;93.90;;;;;;5009155;28;20069;-78
2022/04/03 11:38:34;;;;;;;3.42;0.70;;;6.70;94.00;;;;;;5011260;28;20034;-78
2022/04/03 11:41:01;;;;;;;;;;;6.60;93.20;;;;;;5013100;28;20647;-78
2022/04/03 11:43:26;;;;;;;5.53;1.08;;;6.70;93.80;;;;;;5012855;28;19924;-77
2022/04/03 11:45:59;;;;;;;3.75;1.30;;;6.80;93.00;;;;;;5010757;28;20416;-75
2022/04/03 11:48:30;;;;;;;2.83;0.77;;;6.90;91.20;;;;;;4990732;28;20121;-78
2022/04/03 11:51:08;;;;;;;1.70;0.73;;;7.10;89.90;;;;;;5004093;28;20037;-77
2022/04/03 11:53:35;;;;;;;1.35;0.60;;;7.30;88.00;;;;;;5008012;28;20034;-78
2022/04/03 11:56:13;;;;;;;2.90;0.70;;;7.40;85.70;;;;;;4989404;28;20052;-77
2022/04/03 11:58:48;;;;;;;2.63;0.70;;;7.70;83.70;;;;;;5009364;28;20050;-77
2022/04/03 12:01:30;;;;;;;2.08;0.57;;;7.90;79.90;;;;;;5009803;28;20695;-78
2022/04/03 12:04:00;;;;;;;1.80;0.82;;;8.00;78.30;;;;;;5006860;28;20484;-78
2022/04/03 12:06:26;;;;;;;1.25;0.60;;;8.10;76.20;;;;;;4989494;28;20392;-76
2022/04/03 12:08:52;;;;;;;3.67;0.80;;;8.10;74.10;;;;;;5005818;28;20117;-77
2022/04/03 12:11:24;;;;;;;2.20;0.45;;;8.10;71.70;;;;;;5005643;28;20598;-77
2022/04/03 12:13:51;;;;;;;1.77;0.40;;;8.20;71.90;;;;;;5005855;28;20061;-77
2022/04/03 12:16:21;;;;;;;1.45;0.60;;;8.30;68.30;;;;;;5006947;28;20037;-77
2022/04/03 12:18:59;;;;;;;2.50;0.50;;;8.30;65.40;;;;;;5008459;28;20041;-77
2022/04/03 12:21:43;;;;;;;4.55;0.98;;;8.30;66.00;;;;;;5007914;28;20411;-76
2022/04/03 12:24:10;;;;;;;5.15;0.85;;;8.10;70.90;;;;;;5005802;28;20176;-76
2022/04/03 12:26:37;;;;;;;3.42;0.90;;;8.00;72.30;;;;;;5004721;28;20030;-77
2022/04/03 12:29:07;;;;;;;2.67;1.30;;;7.80;75.20;;;;;;5004147;28;20491;-76
2022/04/03 12:31:34;;;;;;;1.67;0.60;;;7.70;77.30;;;;;;5009113;28;20049;-77
2022/04/03 12:34:16;;;;;;;2.15;0.65;;;7.60;78.00;;;;;;4995419;28;20419;-78
2022/04/03 12:36:42;;;;;;;2.83;0.73;;;7.40;78.80;;;;;;5015296;28;20046;-77
2022/04/03 12:39:27;;;;;;;1.38;0.88;;;7.30;79.10;;;;;;5015463;28;20163;-77
2022/04/03 12:41:53;;;;;;;3.25;0.63;;;7.40;80.20;;;;;;5013895;28;20076;-78
2022/04/03 12:44:19;;;;;;;1.80;0.47;;;7.60;80.80;;;;;;5013846;28;20081;-73
2022/04/03 12:46:48;;;;;;;5.00;0.68;;;7.90;81.90;;;;;;5014993;28;20068;-77
2022/04/03 12:49:19;;;;;;;2.85;0.60;;;8.10;79.90;;;;;;5011511;28;20034;-77
2022/04/03 12:51:48;;;;;;;3.17;0.68;;;8.20;78.20;;;;;;5011843;28;20040;-77
2022/04/03 12:54:14;;;;;;;3.67;0.70;;;8.10;76.90;;;;;;4994393;28;20415;-77
2022/04/03 12:59:39;;;;;;;1.10;0.70;;;8.10;76.70;;;;;;5009846;28;20053;-78
2022/04/03 13:02:06;;;;;;;2.20;0.50;;;8.10;76.60;;;;;;4997762;28;20131;-78
2022/04/03 13:04:31;;;;;;;0.80;0.60;;;8.00;76.60;;;;;;5013111;28;20046;-82